Página principal
METAR-TAF:

METAR-TAF

Aeroportos :

Funchal, Madeira, Portugal

Aeroporto da Madeira

latitude: 32-41-52N, longitude: 016-46-28W, altura: 59 m

Observação actual do tempo

O boletim foi feito há 39 minutos, às 09:30 UTC
Vento 5 kt com direcção variável
Temperatura 25°C
Humidade 61%
Pressão 1017 hPa
Visibilidade 10 km ou mais
Poucas nuvensa uma altura de 1600 ft

METAR: LPMA 230930Z VRB05KT 9999 FEW016 25/17 Q1017

Hora: 11:09 (10:09 UTC)

Previsão

O boletim foi feito há 5 horas e 9 minutos, às 05:00 UTC
Previsão válida de 23 às 06 UTC a 24 às 06 UTC
Vento 15 kt de nor-nordeste
Visibilidade 10 km ou mais
Nuvens dispersasa uma altura de 1500 ft
Temporariamente
de 23 às 06 UTC a 24 às 06 UTC
Vento 20 kt de nor-nordeste com rajadas de 30 kt
Probabilidade 30% :
Temporariamente
de 23 às 06 UTC a 23 às 12 UTC
Vento 5 kt com direcção variável

TAF: LPMA 230500Z 2306/2406 02015KT 9999 SCT015 TEMPO 2306/2406 02020G30KT PROB30 TEMPO 2306/2312 VRB05KT

Observações e previsões do tempo de mais de 4000 aeroportos (mensagens METAR e TAF).

As estações disponíveis são os pontos amarelos e vermelhos sobre o mapa.

Mova o rato sobre o mapa para ver o nome da estação.

Depois clique no ponto para visualizar as observações e previsões meteorológicas.

Para alterar o mapa : clique nos botões verdes com uma cruz preta para aumentar o zoom; no botão verde com uma pitada de zoom; ou nas setas verdes para mapas adjacentes.


METAR-TAF: